createdAt,value
2022-09-14T00:03:39.329Z,99075.88
2022-09-14T00:07:43.860Z,99073.47
2022-09-14T00:11:46.851Z,99063.91
2022-09-14T00:15:52.296Z,99060.50
2022-09-14T00:19:55.445Z,99051.63
2022-09-14T00:24:00.070Z,99057.84
2022-09-14T00:28:04.031Z,99056.84
2022-09-14T00:32:07.231Z,99049.75
2022-09-14T00:36:12.893Z,99044.44
2022-09-14T00:40:17.575Z,99027.56
2022-09-14T00:44:58.198Z,99019.63
2022-09-14T00:49:03.440Z,99016.28
2022-09-14T00:53:06.875Z,99021.63
2022-09-14T00:57:11.700Z,99007.56
2022-09-14T01:01:15.370Z,99001.50
2022-09-14T01:05:20.322Z,99010.56
2022-09-14T01:09:35.903Z,99006.41
2022-09-14T01:13:53.176Z,99010.13
2022-09-14T01:18:04.216Z,99004.91
2022-09-14T01:22:12.361Z,98999.72
2022-09-14T01:26:35.920Z,99005.16
2022-09-14T01:30:43.272Z,99006.09
2022-09-14T01:34:52.283Z,99016.75
2022-09-14T01:38:56.545Z,99010.63
2022-09-14T01:43:03.710Z,99019.56
2022-09-14T01:47:12.650Z,99011.63
2022-09-14T01:51:21.300Z,99005.47
2022-09-14T01:55:29.710Z,99000.22
2022-09-14T01:59:37.238Z,99008.22
2022-09-14T02:03:47.823Z,99010.88
2022-09-14T02:07:51.294Z,99011.75
2022-09-14T02:11:55.685Z,99009.94
2022-09-14T02:15:58.756Z,99001.94
2022-09-14T02:20:06.179Z,99001.94
2022-09-14T02:24:09.431Z,98996.72
2022-09-14T02:28:12.474Z,98995.00
2022-09-14T02:32:23.559Z,98992.47
2022-09-14T02:36:37.197Z,98980.97
2022-09-14T02:40:51.755Z,98983.56
2022-09-14T02:45:13.225Z,98950.78
2022-09-14T02:49:24.623Z,98943.84
2022-09-14T02:53:33.981Z,98953.81
2022-09-14T02:58:02.452Z,98934.38
2022-09-14T03:02:05.575Z,98950.41
2022-09-14T03:06:10.378Z,98954.75
2022-09-14T03:10:15.399Z,98950.25
2022-09-14T03:14:18.403Z,98959.09
2022-09-14T03:18:21.754Z,98972.47
2022-09-14T03:22:25.070Z,98958.34
2022-09-14T03:26:30.092Z,98950.41
2022-09-14T03:30:33.130Z,98947.13
2022-09-14T03:34:36.288Z,98949.09
2022-09-14T03:38:39.527Z,98962.66
2022-09-14T03:42:45.583Z,98964.53
2022-09-14T03:46:48.816Z,98953.00
2022-09-14T03:50:52.002Z,98955.72
2022-09-14T03:54:55.335Z,98960.19
2022-09-14T03:59:00.513Z,98961.94
2022-09-14T04:03:04.254Z,98968.09
2022-09-14T04:07:07.583Z,98964.53
2022-09-14T04:11:11.940Z,98965.38
2022-09-14T04:15:16.475Z,98971.44
2022-09-14T04:19:19.754Z,98976.78
2022-09-14T04:23:22.973Z,98974.91
2022-09-14T04:27:25.998Z,98973.06
2022-09-14T04:31:30.624Z,98967.72
2022-09-14T04:35:33.681Z,98951.75
2022-09-14T04:39:37.164Z,98944.66
2022-09-14T04:43:40.417Z,98944.56
2022-09-14T04:47:44.765Z,98938.34
2022-09-14T04:51:48.147Z,98925.03
2022-09-14T04:55:51.479Z,98926.78
2022-09-14T04:59:54.525Z,98917.03
2022-09-14T05:03:59.230Z,98914.38
2022-09-14T05:08:02.575Z,98915.28
2022-09-14T05:12:05.907Z,98925.81
2022-09-14T05:16:10.637Z,98939.03
2022-09-14T05:20:15.377Z,98948.75
2022-09-14T05:24:19.654Z,98960.22
2022-09-14T05:28:22.659Z,98954.88
2022-09-14T05:32:25.924Z,98945.94
2022-09-14T05:36:30.274Z,98956.59
2022-09-14T05:40:33.565Z,98965.53
2022-09-14T05:44:36.575Z,98956.59
2022-09-14T05:48:41.240Z,98943.34
2022-09-14T05:52:45.692Z,98928.31
2022-09-14T05:56:49.056Z,98929.13
2022-09-14T06:00:52.194Z,98925.38
2022-09-14T06:04:55.488Z,98922.53
2022-09-14T06:09:00.153Z,98925.88
2022-09-14T06:13:03.168Z,98939.03
2022-09-14T06:17:06.688Z,98934.44
2022-09-14T06:21:10.930Z,98918.34
2022-09-14T06:25:15.306Z,98916.47
2022-09-14T06:29:18.502Z,98926.13
2022-09-14T06:33:22.692Z,98932.19
2022-09-14T06:37:25.825Z,98935.59
2022-09-14T06:41:32.950Z,98936.25
2022-09-14T06:45:37.377Z,98933.41
2022-09-14T06:49:40.580Z,98938.69
2022-09-14T06:53:44.239Z,98937.72
2022-09-14T06:57:50.321Z,98937.53
2022-09-14T07:01:53.279Z,98930.28
2022-09-14T07:06:02.867Z,98941.66
2022-09-14T07:10:07.127Z,98954.09
2022-09-14T07:14:12.562Z,98948.63
2022-09-14T07:18:16.797Z,98952.88
2022-09-14T07:22:19.790Z,98953.69
2022-09-14T07:26:24.792Z,98944.66
2022-09-14T07:30:29.461Z,98958.66
2022-09-14T07:34:32.602Z,98947.78
2022-09-14T07:38:51.556Z,98952.78
2022-09-14T07:42:57.781Z,98947.03
2022-09-14T07:47:02.517Z,98933.34
2022-09-14T07:51:08.660Z,98940.06
2022-09-14T07:55:13.222Z,98961.81
2022-09-14T07:59:36.000Z,98968.47
2022-09-14T08:03:42.167Z,98973.50
2022-09-14T08:07:45.105Z,98967.78
2022-09-14T08:11:48.267Z,98960.94
2022-09-14T08:15:51.409Z,98965.88
2022-09-14T08:19:55.788Z,98962.41
2022-09-14T08:23:59.414Z,98949.78
2022-09-14T08:28:02.977Z,98949.47
2022-09-14T08:32:06.921Z,98945.28
2022-09-14T08:36:13.434Z,98946.69
2022-09-14T08:40:18.147Z,98945.38
2022-09-14T08:44:25.888Z,98944.13
2022-09-14T08:48:34.231Z,98955.31
2022-09-14T08:52:43.591Z,98950.47
2022-09-14T08:56:51.047Z,98948.34
2022-09-14T09:01:02.887Z,98932.84
2022-09-14T09:05:25.045Z,98948.63
2022-09-14T09:09:40.597Z,98944.13
2022-09-14T09:13:45.358Z,98938.78
2022-09-14T09:17:53.289Z,98937.94
2022-09-14T09:21:57.067Z,98928.66
2022-09-14T09:26:07.147Z,98936.53
2022-09-14T09:30:14.987Z,98928.50
2022-09-14T09:34:24.215Z,98930.38
2022-09-14T09:38:30.080Z,98928.34
2022-09-14T09:42:36.300Z,98927.84
2022-09-14T09:46:41.105Z,98942.50
2022-09-14T09:50:50.577Z,98943.72
2022-09-14T09:54:55.439Z,98954.88
2022-09-14T09:59:00.181Z,98954.56
2022-09-14T10:03:27.534Z,98963.84
2022-09-14T10:07:33.297Z,98957.19
2022-09-14T10:11:39.080Z,98968.56
2022-09-14T10:15:44.281Z,98992.50
2022-09-14T10:19:52.355Z,98990.59
2022-09-14T10:24:08.068Z,98991.66
2022-09-14T10:28:25.679Z,98979.88
2022-09-14T10:32:32.465Z,98997.69
2022-09-14T10:36:43.169Z,98995.09
2022-09-14T10:40:55.059Z,98988.00
2022-09-14T10:45:09.886Z,98976.44
2022-09-14T10:49:31.910Z,98958.63
2022-09-14T10:53:46.150Z,98923.25
2022-09-14T10:57:57.444Z,98914.53
2022-09-14T11:02:29.630Z,98920.06
2022-09-14T11:06:46.116Z,98895.03
2022-09-14T11:11:09.346Z,98891.34
2022-09-14T11:15:22.255Z,98885.16
2022-09-14T11:19:36.498Z,98880.88
2022-09-14T11:23:49.647Z,98877.56
2022-09-14T11:27:56.137Z,98879.13
2022-09-14T11:32:20.256Z,98875.19
2022-09-14T11:36:28.921Z,98858.81
2022-09-14T11:40:38.172Z,98863.63
2022-09-14T11:44:44.728Z,98872.97
2022-09-14T11:48:53.624Z,98868.13
2022-09-14T11:53:05.631Z,98850.00
2022-09-14T11:57:18.683Z,98845.25
2022-09-14T12:01:31.750Z,98818.19
2022-09-14T12:05:36.801Z,98807.31
2022-09-14T12:09:45.539Z,98787.06
2022-09-14T12:13:50.452Z,98785.47
2022-09-14T12:18:14.872Z,98776.91
2022-09-14T12:22:29.234Z,98778.69
2022-09-14T12:26:34.888Z,98759.06
2022-09-14T12:31:12.319Z,98751.69
2022-09-14T12:35:45.702Z,98729.56
2022-09-14T12:40:24.410Z,98733.69
2022-09-14T12:44:38.734Z,98719.19
2022-09-14T12:49:02.805Z,98731.94
2022-09-14T12:53:27.214Z,98725.84
2022-09-14T12:57:40.356Z,98725.31
2022-09-14T13:01:52.169Z,98719.38
2022-09-14T13:05:57.522Z,98707.44
2022-09-14T13:10:02.152Z,98717.66
2022-09-14T13:14:05.896Z,98718.13
2022-09-14T13:18:32.575Z,98707.94
2022-09-14T13:22:43.736Z,98696.22
2022-09-14T13:26:46.992Z,98706.66
2022-09-14T13:30:56.233Z,98709.06
2022-09-14T13:34:59.603Z,98704.22
2022-09-14T13:39:20.716Z,98700.34
2022-09-14T13:43:24.521Z,98703.59
2022-09-14T13:47:28.245Z,98696.94
2022-09-14T13:51:31.520Z,98710.94
2022-09-14T13:55:46.067Z,98724.94
2022-09-14T14:00:18.207Z,98727.16
2022-09-14T14:04:37.233Z,98735.69
2022-09-14T14:08:40.700Z,98736.97
2022-09-14T14:12:48.888Z,98735.66
2022-09-14T14:17:37.226Z,98730.94
2022-09-14T14:21:40.616Z,98720.06
2022-09-14T14:25:47.430Z,98711.91
2022-09-14T14:29:54.040Z,98704.81
2022-09-14T14:33:58.938Z,98701.03
2022-09-14T14:38:02.073Z,98697.38
2022-09-14T14:42:06.317Z,98689.09
2022-09-14T14:46:10.921Z,98672.97
2022-09-14T14:50:16.742Z,98672.88
2022-09-14T14:54:19.792Z,98675.34
2022-09-14T14:58:23.796Z,98665.44
2022-09-14T15:02:28.159Z,98676.19
2022-09-14T15:06:31.120Z,98672.44
2022-09-14T15:10:34.185Z,98678.66
2022-09-14T15:14:37.154Z,98672.44
2022-09-14T15:18:41.913Z,98677.91
2022-09-14T15:22:52.712Z,98677.81
2022-09-14T15:26:56.324Z,98688.78
2022-09-14T15:30:59.567Z,98679.97
2022-09-14T15:35:04.175Z,98671.06
2022-09-14T15:39:09.520Z,98671.16
2022-09-14T15:43:12.734Z,98669.44
2022-09-14T15:47:17.034Z,98669.44
2022-09-14T15:51:21.403Z,98670.41
2022-09-14T15:55:24.515Z,98658.66
2022-09-14T15:59:29.300Z,98657.59
2022-09-14T16:03:32.344Z,98646.75
2022-09-14T16:07:36.976Z,98651.97
2022-09-14T16:11:40.843Z,98641.22
2022-09-14T16:15:44.168Z,98645.75
2022-09-14T16:19:50.015Z,98643.16
2022-09-14T16:24:00.699Z,98626.16
2022-09-14T16:28:04.042Z,98625.31
2022-09-14T16:32:07.379Z,98630.91
2022-09-14T16:36:13.416Z,98640.00
2022-09-14T16:40:18.785Z,98615.16
2022-09-14T16:44:24.317Z,98612.59
2022-09-14T16:48:27.572Z,98600.34
2022-09-14T16:52:30.588Z,98588.94
2022-09-14T16:56:37.167Z,98597.13
2022-09-14T17:00:43.583Z,98594.66
2022-09-14T17:04:47.268Z,98584.25
2022-09-14T17:08:51.023Z,98565.75
2022-09-14T17:12:55.932Z,98558.63
2022-09-14T17:17:00.376Z,98562.31
2022-09-14T17:21:08.231Z,98565.09
2022-09-14T17:25:16.191Z,98559.94
2022-09-14T17:29:21.266Z,98549.31
2022-09-14T17:33:51.688Z,98558.56
2022-09-14T17:38:17.971Z,98549.22
2022-09-14T17:42:21.334Z,98548.16
2022-09-14T17:46:28.623Z,98552.47
2022-09-14T17:50:32.516Z,98562.69
2022-09-14T17:54:48.338Z,98547.72
2022-09-14T17:59:00.581Z,98532.75
2022-09-14T18:03:05.315Z,98520.63
2022-09-14T18:07:09.577Z,98527.09
2022-09-14T18:11:17.380Z,98527.28
2022-09-14T18:15:20.976Z,98545.34
2022-09-14T18:19:25.580Z,98541.03
2022-09-14T18:23:29.227Z,98532.44
2022-09-14T18:27:32.714Z,98515.88
2022-09-14T18:31:35.800Z,98546.81
2022-09-14T18:35:40.394Z,98542.63
2022-09-14T18:39:43.939Z,98527.69
2022-09-14T18:43:48.842Z,98540.34
2022-09-14T18:47:52.066Z,98536.81
2022-09-14T18:51:56.648Z,98519.31
2022-09-14T18:56:03.184Z,98536.38
2022-09-14T19:00:07.250Z,98556.09
2022-09-14T19:04:11.864Z,98553.66
2022-09-14T19:08:16.332Z,98544.84
2022-09-14T19:12:19.339Z,98565.53
2022-09-14T19:16:22.348Z,98558.47
2022-09-14T19:20:34.293Z,98530.75
2022-09-14T19:24:47.591Z,98525.63
2022-09-14T19:28:51.233Z,98516.88
2022-09-14T19:32:54.537Z,98532.09
2022-09-14T19:36:57.820Z,98579.56
2022-09-14T19:41:02.658Z,98642.44
2022-09-14T19:45:06.957Z,98696.69
2022-09-14T19:49:14.531Z,98750.16
2022-09-14T19:53:17.564Z,98771.63
2022-09-14T19:57:22.130Z,98773.50
2022-09-14T20:01:26.742Z,98791.69
2022-09-14T20:05:29.937Z,98818.28
2022-09-14T20:09:32.923Z,98818.16
2022-09-14T20:13:38.397Z,98812.47
2022-09-14T20:17:41.419Z,98772.91
2022-09-14T20:21:45.736Z,98773.09
2022-09-14T20:25:48.741Z,98688.38
2022-09-14T20:29:53.359Z,98678.78
2022-09-14T20:33:57.254Z,98664.25
2022-09-14T20:38:00.605Z,98648.00
2022-09-14T20:42:04.263Z,98624.75
2022-09-14T20:46:11.733Z,98602.47
2022-09-14T20:50:15.322Z,98628.59
2022-09-14T20:54:19.410Z,98630.47
2022-09-14T20:58:22.790Z,98617.19
2022-09-14T21:02:27.427Z,98615.56
2022-09-14T21:06:30.893Z,98591.72
2022-09-14T21:10:33.880Z,98592.97
2022-09-14T21:14:37.120Z,98606.44
2022-09-14T21:18:41.610Z,98613.81
2022-09-14T21:22:45.736Z,98620.22
2022-09-14T21:26:49.453Z,98631.00
2022-09-14T21:30:52.541Z,98630.34
2022-09-14T21:34:57.522Z,98621.47
2022-09-14T21:39:02.368Z,98630.47
2022-09-14T21:43:05.771Z,98625.13
2022-09-14T21:47:08.929Z,98630.47
2022-09-14T21:51:18.321Z,98632.19
2022-09-14T21:55:21.402Z,98633.16
2022-09-14T21:59:24.981Z,98629.81
2022-09-14T22:03:28.617Z,98623.78
2022-09-14T22:07:33.301Z,98625.84
2022-09-14T22:11:38.810Z,98632.31
2022-09-14T22:15:42.422Z,98628.28
2022-09-14T22:19:46.183Z,98624.84
2022-09-14T22:23:57.167Z,98628.66
2022-09-14T22:28:00.213Z,98629.66
2022-09-14T22:32:04.364Z,98643.13
2022-09-14T22:36:07.960Z,98623.63
2022-09-14T22:40:12.750Z,98623.81
2022-09-14T22:44:16.076Z,98618.84
2022-09-14T22:48:19.685Z,98619.16
2022-09-14T22:52:23.965Z,98623.75
2022-09-14T22:56:31.715Z,98636.44
2022-09-14T23:00:36.414Z,98644.69
2022-09-14T23:04:39.420Z,98641.25
2022-09-14T23:08:42.440Z,98628.84
2022-09-14T23:12:46.818Z,98616.44
2022-09-14T23:16:50.061Z,98619.19
2022-09-14T23:20:53.099Z,98624.44
2022-09-14T23:24:56.345Z,98635.91
2022-09-14T23:29:03.376Z,98632.31
2022-09-14T23:33:06.788Z,98628.66
2022-09-14T23:37:10.071Z,98626.00
2022-09-14T23:41:13.267Z,98633.25
2022-09-14T23:45:17.839Z,98625.22
2022-09-14T23:49:21.057Z,98625.38
2022-09-14T23:53:24.322Z,98611.25
2022-09-14T23:57:27.532Z,98627.28
